Alev Kaman — TCCN5 — position and weather

sailwx.info

Track history (hours):
 
Tides and Currents Weather Stations Pressure Air Temp Water Temp Dewpoint Dewpoint Depression Visibility Wind Speed Wind Dir Waves Ship Positions

Alev Kaman

Last reported at 2015-Jul-01 16:24 UTC. Time now 2015-Jul-04 20:45 UTC.
Position N 40°42' E 028°43'.

Length 93 m; draft 6.3 m.

Type: Tanker. MMSI: 271000716.

Date/timePositionNaut miles runAvg speedWind from/ knotsBaromVisibWave heightAir tempDewpointWater temp
2015-Jul-01 16:24N 40°42' E 028°43'8 9.5
2015-Jul-01 15:33N 40°43' E 028°53'9 9.1
2015-Jul-01 14:33N 40°44' E 029°05'10 9.0
2015-Jul-01 13:28N 40°44' E 029°18'9 9.1
2015-Jul-01 12:32N 40°45' E 029°29'  
2015-Jun-24 06:25N 40°44' E 029°40'8 8.8
2015-Jun-24 05:32N 40°45' E 029°30'8 7.7
2015-Jun-24 04:32N 40°44' E 029°20'9 8.9
2015-Jun-24 03:33N 40°43' E 029°08'9 8.7
2015-Jun-24 02:33N 40°42' E 028°57'9 8.6
2015-Jun-24 01:32N 40°42' E 028°45'  
Track history (hours):
 
Tides and Currents Weather Stations Pressure Air Temp Water Temp Dewpoint Dewpoint Depression Visibility Wind Speed Wind Dir Waves Ship Positions

Alev Kaman

Last reported at 2015-Jul-01 16:24 UTC. Time now 2015-Jul-04 20:45 UTC.
Position N 40°42' E 028°43'.

Length 93 m; draft 6.3 m.

Type: Tanker. MMSI: 271000716.

Date/timePositionNaut miles runAvg speedWind from/ knotsBaromVisibWave heightAir tempDewpointWater temp
2015-Jul-01 16:24N 40°42' E 028°43'8 9.5
2015-Jul-01 15:33N 40°43' E 028°53'9 9.1
2015-Jul-01 14:33N 40°44' E 029°05'10 9.0
2015-Jul-01 13:28N 40°44' E 029°18'9 9.1
2015-Jul-01 12:32N 40°45' E 029°29'  
2015-Jun-24 06:25N 40°44' E 029°40'8 8.8
2015-Jun-24 05:32N 40°45' E 029°30'8 7.7
2015-Jun-24 04:32N 40°44' E 029°20'9 8.9
2015-Jun-24 03:33N 40°43' E 029°08'9 8.7
2015-Jun-24 02:33N 40°42' E 028°57'9 8.6
2015-Jun-24 01:32N 40°42' E 028°45'  

Dump ship's entire track history